createdAt,value
2022-08-18T00:02:29.932Z,18.95
2022-08-18T00:04:58.047Z,18.72
2022-08-18T00:07:30.367Z,18.92
2022-08-18T00:09:58.626Z,19.05
2022-08-18T00:12:33.360Z,19.15
2022-08-18T00:15:04.140Z,19.19
2022-08-18T00:17:31.901Z,19.23
2022-08-18T00:19:59.401Z,19.28
2022-08-18T00:22:26.011Z,19.32
2022-08-18T00:24:55.736Z,19.46
2022-08-18T00:27:31.085Z,19.40
2022-08-18T00:30:00.836Z,19.36
2022-08-18T00:32:30.764Z,19.34
2022-08-18T00:34:57.518Z,19.33
2022-08-18T00:37:24.899Z,19.23
2022-08-18T00:39:53.078Z,19.17
2022-08-18T00:42:27.425Z,19.04
2022-08-18T00:47:42.113Z,19.28
2022-08-18T00:50:16.105Z,19.02
2022-08-18T00:52:49.554Z,19.20
2022-08-18T00:55:18.188Z,19.16
2022-08-18T00:57:49.141Z,18.98
2022-08-18T01:00:15.737Z,18.90
2022-08-18T01:02:58.363Z,18.97
2022-08-18T01:05:34.025Z,18.97
2022-08-18T01:08:01.037Z,19.03
2022-08-18T01:10:27.668Z,19.03
2022-08-18T01:12:56.602Z,19.01
2022-08-18T01:15:28.473Z,19.01
2022-08-18T01:18:22.689Z,18.94
2022-08-18T01:21:40.838Z,18.82
2022-08-18T01:24:10.160Z,18.72
2022-08-18T01:26:44.209Z,18.64
2022-08-18T01:29:18.854Z,18.70
2022-08-18T01:31:55.870Z,18.57
2022-08-18T01:34:26.457Z,18.70
2022-08-18T01:36:54.864Z,18.63
2022-08-18T01:40:59.982Z,18.74
2022-08-18T01:42:08.699Z,18.61
2022-08-18T01:44:35.510Z,18.63
2022-08-18T01:47:03.638Z,18.47
2022-08-18T01:49:30.111Z,18.47
2022-08-18T01:51:56.637Z,18.45
2022-08-18T01:54:23.369Z,18.44
2022-08-18T01:56:50.217Z,18.31
2022-08-18T01:59:16.705Z,18.43
2022-08-18T02:01:48.394Z,18.27
2022-08-18T02:04:34.394Z,18.00
2022-08-18T02:07:02.853Z,18.02
2022-08-18T02:09:31.118Z,18.08
2022-08-18T02:11:57.595Z,18.14
2022-08-18T02:14:24.982Z,18.15
2022-08-18T02:17:01.837Z,18.07
2022-08-18T02:19:34.209Z,17.97
2022-08-18T02:22:01.155Z,17.79
2022-08-18T02:24:27.903Z,17.86
2022-08-18T02:26:54.525Z,17.85
2022-08-18T02:29:21.040Z,17.64
2022-08-18T02:31:47.561Z,17.96
2022-08-18T02:34:15.673Z,18.03
2022-08-18T02:36:42.280Z,17.48
2022-08-18T02:39:08.712Z,17.91
2022-08-18T02:45:18.715Z,17.51
2022-08-18T02:47:51.471Z,17.62
2022-08-18T02:50:18.352Z,17.67
2022-08-18T02:52:44.853Z,17.49
2022-08-18T02:55:12.287Z,17.58
2022-08-18T02:57:46.797Z,17.49
2022-08-18T03:00:15.853Z,17.43
2022-08-18T03:02:51.328Z,17.29
2022-08-18T03:05:19.211Z,17.22
2022-08-18T03:07:46.786Z,17.38
2022-08-18T03:10:33.504Z,17.20
2022-08-18T03:13:00.808Z,17.23
2022-08-18T03:15:27.274Z,17.10
2022-08-18T03:17:54.607Z,17.01
2022-08-18T03:20:31.135Z,16.97
2022-08-18T03:23:09.531Z,17.00
2022-08-18T03:25:36.526Z,17.23
2022-08-18T03:28:04.782Z,17.29
2022-08-18T03:30:31.249Z,17.40
2022-08-18T03:32:58.242Z,17.34
2022-08-18T03:35:25.013Z,17.40
2022-08-18T03:37:51.648Z,17.40
2022-08-18T03:40:18.254Z,17.52
2022-08-18T03:42:44.673Z,17.58
2022-08-18T03:45:13.331Z,17.38
2022-08-18T03:47:45.788Z,17.38
2022-08-18T03:50:13.941Z,17.36
2022-08-18T03:52:41.497Z,17.22
2022-08-18T03:55:08.764Z,17.24
2022-08-18T03:57:39.354Z,17.38
2022-08-18T04:00:06.762Z,17.40
2022-08-18T04:02:33.165Z,17.34
2022-08-18T04:04:59.688Z,17.41
2022-08-18T04:07:26.087Z,17.49
2022-08-18T04:09:52.524Z,17.53
2022-08-18T04:12:18.989Z,17.62
2022-08-18T04:14:48.746Z,17.65
2022-08-18T04:17:24.871Z,17.64
2022-08-18T04:19:53.442Z,17.47
2022-08-18T04:22:19.875Z,17.48
2022-08-18T04:24:46.858Z,17.55
2022-08-18T04:27:13.579Z,17.55
2022-08-18T04:29:40.087Z,17.56
2022-08-18T04:32:07.175Z,17.49
2022-08-18T04:34:34.223Z,17.62
2022-08-18T04:37:01.358Z,17.65
2022-08-18T04:39:28.078Z,17.68
2022-08-18T04:41:54.629Z,17.72
2022-08-18T04:44:21.881Z,17.67
2022-08-18T04:46:53.360Z,17.62
2022-08-18T04:49:25.730Z,17.52
2022-08-18T04:52:36.670Z,17.59
2022-08-18T04:55:01.426Z,17.59
2022-08-18T04:57:29.044Z,17.44
2022-08-18T05:00:00.196Z,17.45
2022-08-18T05:02:27.220Z,17.31
2022-08-18T05:04:53.747Z,17.27
2022-08-18T05:07:22.925Z,17.14
2022-08-18T05:09:50.318Z,17.21
2022-08-18T05:12:16.928Z,17.45
2022-08-18T05:14:45.493Z,17.56
2022-08-18T05:17:13.857Z,17.60
2022-08-18T05:19:44.049Z,17.49
2022-08-18T05:22:13.815Z,17.41
2022-08-18T05:24:41.071Z,17.62
2022-08-18T05:27:07.763Z,17.71
2022-08-18T05:29:36.577Z,17.60
2022-08-18T05:32:09.324Z,17.79
2022-08-18T05:34:36.067Z,17.63
2022-08-18T05:37:27.413Z,17.65
2022-08-18T05:40:00.810Z,17.68
2022-08-18T05:42:33.838Z,17.68
2022-08-18T05:45:13.396Z,17.64
2022-08-18T05:47:39.926Z,17.55
2022-08-18T05:50:10.493Z,17.43
2022-08-18T05:52:51.834Z,17.30
2022-08-18T05:55:48.044Z,17.21
2022-08-18T05:58:21.966Z,17.14
2022-08-18T06:00:59.847Z,17.27
2022-08-18T06:03:46.660Z,17.26
2022-08-18T06:06:29.548Z,17.30
2022-08-18T06:09:05.613Z,17.16
2022-08-18T06:11:32.594Z,17.02
2022-08-18T06:14:00.403Z,17.05
2022-08-18T06:16:40.443Z,17.01
2022-08-18T06:19:35.168Z,16.94
2022-08-18T06:22:18.565Z,16.98
2022-08-18T06:25:15.625Z,17.15
2022-08-18T06:28:03.154Z,17.30
2022-08-18T06:30:41.457Z,17.43
2022-08-18T06:33:39.357Z,17.51
2022-08-18T06:36:21.700Z,17.60
2022-08-18T06:39:03.369Z,17.56
2022-08-18T06:41:43.889Z,17.66
2022-08-18T06:44:22.917Z,17.67
2022-08-18T06:47:04.084Z,17.64
2022-08-18T06:49:46.627Z,17.62
2022-08-18T06:52:33.875Z,17.71
2022-08-18T06:55:16.062Z,17.55
2022-08-18T06:58:01.735Z,17.57
2022-08-18T07:00:32.353Z,17.53
2022-08-18T07:03:14.363Z,17.47
2022-08-18T07:06:24.655Z,17.36
2022-08-18T07:08:54.282Z,17.32
2022-08-18T07:11:22.888Z,17.26
2022-08-18T07:14:14.528Z,17.17
2022-08-18T07:19:29.408Z,17.11
2022-08-18T07:22:10.229Z,17.22
2022-08-18T07:24:44.562Z,17.33
2022-08-18T07:27:10.963Z,17.39
2022-08-18T07:29:59.203Z,17.42
2022-08-18T07:32:30.970Z,17.49
2022-08-18T07:35:00.669Z,17.50
2022-08-18T07:37:43.241Z,17.41
2022-08-18T07:40:45.198Z,17.36
2022-08-18T07:43:27.875Z,17.19
2022-08-18T07:46:00.923Z,17.24
2022-08-18T07:48:38.490Z,17.38
2022-08-18T07:51:37.268Z,17.52
2022-08-18T07:54:13.171Z,17.46
2022-08-18T07:56:55.862Z,17.41
2022-08-18T07:59:47.203Z,17.51
2022-08-18T08:02:31.964Z,17.53
2022-08-18T08:05:19.982Z,17.05
2022-08-18T08:07:56.578Z,17.67
2022-08-18T08:10:51.693Z,17.75
2022-08-18T08:13:55.207Z,17.81
2022-08-18T08:16:28.511Z,17.89
2022-08-18T08:19:58.810Z,18.06
2022-08-18T08:22:41.590Z,18.26
2022-08-18T08:25:35.077Z,18.35
2022-08-18T08:28:18.401Z,18.41
2022-08-18T08:31:33.429Z,18.48
2022-08-18T08:34:11.529Z,18.50
2022-08-18T08:36:40.913Z,18.56
2022-08-18T08:39:19.674Z,18.30
2022-08-18T08:42:31.954Z,18.43
2022-08-18T08:45:00.153Z,18.51
2022-08-18T08:47:40.903Z,18.30
2022-08-18T08:50:13.578Z,18.33
2022-08-18T08:52:47.392Z,18.43
2022-08-18T08:55:21.488Z,18.55
2022-08-18T08:57:55.744Z,18.60
2022-08-18T09:00:22.569Z,18.57
2022-08-18T09:03:30.673Z,18.58
2022-08-18T09:06:07.278Z,18.63
2022-08-18T09:08:49.517Z,18.50
2022-08-18T09:11:41.764Z,18.57
2022-08-18T09:14:17.397Z,18.47
2022-08-18T09:16:53.111Z,18.46
2022-08-18T09:19:31.796Z,18.34
2022-08-18T09:22:07.898Z,18.27
2022-08-18T09:24:50.987Z,18.55
2022-08-18T09:28:06.774Z,18.58
2022-08-18T09:31:14.149Z,18.72
2022-08-18T09:34:10.648Z,18.78
2022-08-18T09:37:10.581Z,18.73
2022-08-18T09:40:15.534Z,18.68
2022-08-18T09:42:58.145Z,18.43
2022-08-18T09:45:33.677Z,18.54
2022-08-18T09:48:25.500Z,18.66
2022-08-18T09:51:15.760Z,18.65
2022-08-18T09:54:05.326Z,18.69
2022-08-18T09:56:53.906Z,18.84
2022-08-18T09:59:34.506Z,18.93
2022-08-18T10:02:03.434Z,18.95
2022-08-18T10:04:51.310Z,19.01
2022-08-18T10:07:35.411Z,18.88
2022-08-18T10:10:59.179Z,18.84
2022-08-18T10:13:49.514Z,18.85
2022-08-18T10:17:13.401Z,18.82
2022-08-18T10:22:43.115Z,18.65
2022-08-18T10:25:22.577Z,18.67
2022-08-18T10:27:56.444Z,18.70
2022-08-18T10:30:30.390Z,18.72
2022-08-18T10:36:00.996Z,18.73
2022-08-18T10:38:41.077Z,18.73
2022-08-18T10:41:20.588Z,18.71
2022-08-18T10:43:57.402Z,18.72
2022-08-18T10:46:33.125Z,18.77
2022-08-18T10:49:10.441Z,18.77
2022-08-18T10:52:01.095Z,18.85
2022-08-18T10:54:59.288Z,18.80
2022-08-18T10:57:50.753Z,18.87
2022-08-18T11:00:21.974Z,18.95
2022-08-18T11:06:18.144Z,19.14
2022-08-18T11:08:54.762Z,19.11
2022-08-18T11:11:38.788Z,19.14
2022-08-18T11:14:34.862Z,19.12
2022-08-18T11:17:12.360Z,19.17
2022-08-18T11:19:46.503Z,19.11
2022-08-18T11:22:34.107Z,19.10
2022-08-18T11:25:03.359Z,19.18
2022-08-18T11:27:37.149Z,19.21
2022-08-18T11:30:09.789Z,19.23
2022-08-18T11:32:42.674Z,19.23
2022-08-18T11:35:21.720Z,19.37
2022-08-18T11:37:53.859Z,19.40
2022-08-18T11:41:01.971Z,19.34
2022-08-18T11:43:21.218Z,19.28
2022-08-18T11:45:55.440Z,19.26
2022-08-18T11:48:35.966Z,19.43
2022-08-18T11:51:23.393Z,19.59
2022-08-18T11:53:59.733Z,19.70
2022-08-18T11:56:37.913Z,19.75
2022-08-18T11:59:52.431Z,19.85
2022-08-18T12:02:22.337Z,19.95
2022-08-18T12:04:57.794Z,20.04
2022-08-18T12:07:31.968Z,19.65
2022-08-18T12:10:21.002Z,19.44
2022-08-18T12:12:54.796Z,19.33
2022-08-18T12:15:43.559Z,19.49
2022-08-18T12:23:52.408Z,18.90
2022-08-18T12:29:08.964Z,19.58
2022-08-18T12:31:47.665Z,19.66
2022-08-18T12:34:27.310Z,19.58
2022-08-18T12:36:56.706Z,19.59
2022-08-18T12:39:23.173Z,19.58
2022-08-18T12:41:50.897Z,19.74
2022-08-18T12:44:18.741Z,19.61
2022-08-18T12:46:47.479Z,19.38
2022-08-18T12:49:21.215Z,19.40
2022-08-18T12:51:50.276Z,19.48
2022-08-18T12:54:17.941Z,19.76
2022-08-18T12:56:48.670Z,19.87
2022-08-18T12:59:15.979Z,20.13
2022-08-18T13:01:44.449Z,20.38
2022-08-18T13:04:14.137Z,20.63
2022-08-18T13:06:59.853Z,20.69
2022-08-18T13:09:53.340Z,20.77
2022-08-18T13:12:21.254Z,20.88
2022-08-18T13:14:50.931Z,20.69
2022-08-18T13:17:29.490Z,20.78
2022-08-18T13:20:03.505Z,21.08
2022-08-18T13:22:32.127Z,21.27
2022-08-18T13:25:01.430Z,21.31
2022-08-18T13:27:32.794Z,21.02
2022-08-18T13:30:02.752Z,21.16
2022-08-18T13:33:00.231Z,21.19
2022-08-18T13:35:30.009Z,21.30
2022-08-18T13:38:14.236Z,21.62
2022-08-18T13:40:46.960Z,21.65
2022-08-18T13:43:14.725Z,22.03
2022-08-18T13:45:42.709Z,22.03
2022-08-18T13:48:10.687Z,21.96
2022-08-18T13:50:40.261Z,22.12
2022-08-18T13:53:19.463Z,22.34
2022-08-18T13:55:47.533Z,22.23
2022-08-18T13:58:20.515Z,22.08
2022-08-18T14:00:54.052Z,22.07
2022-08-18T14:03:42.661Z,21.65
2022-08-18T14:06:11.544Z,22.22
2022-08-18T14:08:40.413Z,21.93
2022-08-18T14:11:08.883Z,22.07
2022-08-18T14:13:38.281Z,21.91
2022-08-18T14:16:16.131Z,21.83
2022-08-18T14:19:09.961Z,22.08
2022-08-18T14:22:00.290Z,22.05
2022-08-18T14:24:49.029Z,21.93
2022-08-18T14:27:20.578Z,21.72
2022-08-18T14:29:48.759Z,21.88
2022-08-18T14:32:29.503Z,21.93
2022-08-18T14:35:33.204Z,21.76
2022-08-18T14:37:48.577Z,21.74
2022-08-18T14:40:15.672Z,21.91
2022-08-18T14:42:54.838Z,22.09
2022-08-18T14:45:31.371Z,21.91
2022-08-18T14:48:07.411Z,21.55
2022-08-18T14:50:38.497Z,21.78
2022-08-18T14:53:06.177Z,21.51
2022-08-18T14:55:32.667Z,21.74
2022-08-18T14:58:01.097Z,21.82
2022-08-18T15:00:28.470Z,21.81
2022-08-18T15:02:57.306Z,21.97
2022-08-18T15:05:27.049Z,22.16
2022-08-18T15:07:53.671Z,21.98
2022-08-18T15:10:23.622Z,21.99
2022-08-18T15:12:54.965Z,22.17
2022-08-18T15:15:22.635Z,21.97
2022-08-18T15:17:52.675Z,21.75
2022-08-18T15:20:24.070Z,21.84
2022-08-18T15:23:28.458Z,21.57
2022-08-18T15:25:56.467Z,21.76
2022-08-18T15:28:25.319Z,21.99
2022-08-18T15:31:16.541Z,21.96
2022-08-18T15:33:38.754Z,22.14
2022-08-18T15:36:05.455Z,21.87
2022-08-18T15:38:36.678Z,22.29
2022-08-18T15:41:06.180Z,22.15
2022-08-18T15:43:45.892Z,22.00
2022-08-18T15:46:14.058Z,22.06
2022-08-18T15:48:43.765Z,22.12
2022-08-18T15:51:12.053Z,22.01
2022-08-18T15:53:44.436Z,22.33
2022-08-18T15:56:20.979Z,22.39
2022-08-18T15:58:49.183Z,22.45
2022-08-18T16:01:30.059Z,22.51
2022-08-18T16:03:59.618Z,22.63
2022-08-18T16:06:27.490Z,22.67
2022-08-18T16:08:54.998Z,22.68
2022-08-18T16:11:29.163Z,22.71
2022-08-18T16:13:58.661Z,22.62
2022-08-18T16:16:36.281Z,22.76
2022-08-18T16:19:05.557Z,22.77
2022-08-18T16:21:32.082Z,22.81
2022-08-18T16:23:58.629Z,22.67
2022-08-18T16:26:25.244Z,22.66
2022-08-18T16:28:52.979Z,22.65
2022-08-18T16:31:24.980Z,22.61
2022-08-18T16:33:56.063Z,22.69
2022-08-18T16:36:26.984Z,22.78
2022-08-18T16:38:58.141Z,22.74
2022-08-18T16:41:25.887Z,22.82
2022-08-18T16:43:52.502Z,22.94
2022-08-18T16:46:26.387Z,22.98
2022-08-18T16:48:54.835Z,22.93
2022-08-18T16:51:22.893Z,22.97
2022-08-18T16:53:52.922Z,23.00
2022-08-18T16:56:23.127Z,22.96
2022-08-18T16:59:10.939Z,22.96
2022-08-18T17:01:56.522Z,22.96
2022-08-18T17:04:28.628Z,23.01
2022-08-18T17:06:56.122Z,22.99
2022-08-18T17:09:23.668Z,22.99
2022-08-18T17:11:52.361Z,22.93
2022-08-18T17:14:25.354Z,23.00
2022-08-18T17:16:56.089Z,22.97
2022-08-18T17:19:24.371Z,22.86
2022-08-18T17:21:51.052Z,22.70
2022-08-18T17:24:18.612Z,22.66
2022-08-18T17:27:19.217Z,22.51
2022-08-18T17:29:56.839Z,22.34
2022-08-18T17:32:28.024Z,22.37
2022-08-18T17:35:01.742Z,22.14
2022-08-18T17:37:29.990Z,22.15
2022-08-18T17:40:08.710Z,22.17
2022-08-18T17:42:37.301Z,22.11
2022-08-18T17:45:10.402Z,22.04
2022-08-18T17:47:50.402Z,22.01
2022-08-18T17:50:57.942Z,21.92
2022-08-18T17:53:25.500Z,21.72
2022-08-18T17:56:05.493Z,21.67
2022-08-18T17:58:40.526Z,21.37
2022-08-18T18:01:09.037Z,21.21
2022-08-18T18:03:35.986Z,21.14
2022-08-18T18:06:29.729Z,21.16
2022-08-18T18:09:09.245Z,21.15
2022-08-18T18:11:42.202Z,20.77
2022-08-18T18:14:38.776Z,21.07
2022-08-18T18:17:12.794Z,20.83
2022-08-18T18:19:43.128Z,20.72
2022-08-18T18:22:18.890Z,20.62
2022-08-18T18:24:52.022Z,20.70
2022-08-18T18:27:26.558Z,20.54
2022-08-18T18:30:02.364Z,20.53
2022-08-18T18:32:59.337Z,20.56
2022-08-18T18:35:34.293Z,20.52
2022-08-18T18:38:22.492Z,20.48
2022-08-18T18:40:57.269Z,20.42
2022-08-18T18:43:38.129Z,20.41
2022-08-18T18:46:07.782Z,19.69
2022-08-18T18:49:09.702Z,20.26
2022-08-18T18:51:54.822Z,20.26
2022-08-18T18:54:32.731Z,20.24
2022-08-18T18:56:59.562Z,20.17
2022-08-18T18:59:45.262Z,20.18
2022-08-18T19:02:33.694Z,20.09
2022-08-18T19:05:07.852Z,20.05
2022-08-18T19:08:03.914Z,19.88
2022-08-18T19:10:48.013Z,19.91
2022-08-18T19:13:32.618Z,19.90
2022-08-18T19:16:23.569Z,19.82
2022-08-18T19:18:57.889Z,19.90
2022-08-18T19:22:04.740Z,19.93
2022-08-18T19:24:34.476Z,19.92
2022-08-18T19:27:04.266Z,19.98
2022-08-18T19:29:37.588Z,20.02
2022-08-18T19:32:16.339Z,19.81
2022-08-18T19:34:51.380Z,20.03
2022-08-18T19:37:47.048Z,19.97
2022-08-18T19:40:44.936Z,19.88
2022-08-18T19:43:27.387Z,19.82
2022-08-18T19:46:15.338Z,19.75
2022-08-18T19:49:00.693Z,19.76
2022-08-18T19:51:33.046Z,19.75
2022-08-18T19:54:15.612Z,19.84
2022-08-18T19:56:47.834Z,19.87
2022-08-18T19:59:40.134Z,19.93
2022-08-18T20:02:35.121Z,20.01
2022-08-18T20:05:17.637Z,19.91
2022-08-18T20:08:06.482Z,19.90
2022-08-18T20:10:58.978Z,19.84
2022-08-18T20:13:25.343Z,19.75
2022-08-18T20:16:12.353Z,19.80
2022-08-18T20:18:50.730Z,19.76
2022-08-18T20:21:18.180Z,19.69
2022-08-18T20:24:12.346Z,19.63
2022-08-18T20:26:38.713Z,19.69
2022-08-18T20:29:39.189Z,19.76
2022-08-18T20:32:18.043Z,19.76
2022-08-18T20:34:49.064Z,19.83
2022-08-18T20:37:25.377Z,19.85
2022-08-18T20:39:55.640Z,19.88
2022-08-18T20:42:22.013Z,19.83
2022-08-18T20:44:48.382Z,19.82
2022-08-18T20:47:27.785Z,19.82
2022-08-18T20:50:20.132Z,19.74
2022-08-18T20:53:02.682Z,19.65
2022-08-18T20:55:59.684Z,19.57
2022-08-18T20:58:32.301Z,19.44
2022-08-18T21:01:00.116Z,19.40
2022-08-18T21:03:59.434Z,19.30
2022-08-18T21:06:34.821Z,19.31
2022-08-18T21:09:02.303Z,19.35
2022-08-18T21:11:42.967Z,19.45
2022-08-18T21:14:12.672Z,19.32
2022-08-18T21:16:44.969Z,19.16
2022-08-18T21:19:20.629Z,18.94
2022-08-18T21:21:49.944Z,19.00
2022-08-18T21:24:34.529Z,18.87
2022-08-18T21:27:24.963Z,18.88
2022-08-18T21:29:53.381Z,18.87
2022-08-18T21:32:32.760Z,18.92
2022-08-18T21:35:05.895Z,18.43
2022-08-18T21:37:41.184Z,18.71
2022-08-18T21:40:08.228Z,18.70
2022-08-18T21:42:52.950Z,18.72
2022-08-18T21:45:23.115Z,18.67
2022-08-18T21:47:58.228Z,18.62
2022-08-18T21:50:27.731Z,18.67
2022-08-18T21:53:01.489Z,18.76
2022-08-18T21:55:32.518Z,18.74
2022-08-18T21:58:02.298Z,18.71
2022-08-18T22:00:30.270Z,17.95
2022-08-18T22:03:15.935Z,18.74
2022-08-18T22:05:58.873Z,18.63
2022-08-18T22:08:29.282Z,18.59
2022-08-18T22:11:38.300Z,18.57
2022-08-18T22:14:54.858Z,18.50
2022-08-18T22:17:41.998Z,18.46
2022-08-18T22:20:47.337Z,18.40
2022-08-18T22:23:32.556Z,18.37
2022-08-18T22:26:30.200Z,18.34
2022-08-18T22:29:31.669Z,18.32
2022-08-18T22:32:00.047Z,18.24
2022-08-18T22:34:30.190Z,18.22
2022-08-18T22:37:19.402Z,18.16
2022-08-18T22:39:51.208Z,18.04
2022-08-18T22:42:20.638Z,18.05
2022-08-18T22:44:47.557Z,18.08
2022-08-18T22:47:14.002Z,18.06
2022-08-18T22:49:40.666Z,17.89
2022-08-18T22:52:15.054Z,17.84
2022-08-18T22:54:41.626Z,17.89
2022-08-18T22:57:10.293Z,17.81
2022-08-18T22:59:37.436Z,17.81
2022-08-18T23:02:11.162Z,17.80
2022-08-18T23:04:37.747Z,17.76
2022-08-18T23:07:04.205Z,17.75
2022-08-18T23:09:33.285Z,17.63
2022-08-18T23:12:06.954Z,17.79
2022-08-18T23:14:34.580Z,17.82
2022-08-18T23:17:03.183Z,17.85
2022-08-18T23:19:31.790Z,17.74
2022-08-18T23:22:00.192Z,17.91
2022-08-18T23:24:27.634Z,17.89
2022-08-18T23:26:54.370Z,17.86
2022-08-18T23:29:21.558Z,17.92
2022-08-18T23:31:49.385Z,17.90
2022-08-18T23:34:18.306Z,17.78
2022-08-18T23:36:51.005Z,17.93
2022-08-18T23:39:17.735Z,17.88
2022-08-18T23:41:45.050Z,17.91
2022-08-18T23:44:13.672Z,17.78
2022-08-18T23:46:43.081Z,17.45
2022-08-18T23:49:14.521Z,17.30
2022-08-18T23:51:44.427Z,17.47
2022-08-18T23:54:20.686Z,17.51
2022-08-18T23:56:48.335Z,17.26
2022-08-18T23:59:17.120Z,17.19
